sensor_id;sensor_type;location;lat;lon;timestamp;pressure;altitude;pressure_sealevel;temperature;humidity
19789;BME280;10054;59.332;18.244;2022-11-02T00:00:15;100718.18;;;9.73;100.00
19789;BME280;10054;59.332;18.244;2022-11-02T00:02:44;100722.34;;;9.77;100.00
19789;BME280;10054;59.332;18.244;2022-11-02T00:05:13;100718.30;;;9.79;100.00
19789;BME280;10054;59.332;18.244;2022-11-02T00:07:42;100719.61;;;9.79;100.00
19789;BME280;10054;59.332;18.244;2022-11-02T00:10:10;100721.58;;;9.75;100.00
19789;BME280;10054;59.332;18.244;2022-11-02T00:12:39;100713.96;;;9.78;100.00
19789;BME280;10054;59.332;18.244;2022-11-02T00:15:09;100713.41;;;9.80;100.00
19789;BME280;10054;59.332;18.244;2022-11-02T00:17:39;100712.47;;;9.81;100.00
19789;BME280;10054;59.332;18.244;2022-11-02T00:20:10;100709.55;;;9.78;100.00
19789;BME280;10054;59.332;18.244;2022-11-02T00:22:40;100706.73;;;9.81;100.00
19789;BME280;10054;59.332;18.244;2022-11-02T00:25:11;100704.48;;;9.82;100.00
19789;BME280;10054;59.332;18.244;2022-11-02T00:27:42;100701.75;;;9.84;100.00
19789;BME280;10054;59.332;18.244;2022-11-02T00:30:11;100696.66;;;9.81;100.00
19789;BME280;10054;59.332;18.244;2022-11-02T00:32:40;100694.87;;;9.81;100.00
19789;BME280;10054;59.332;18.244;2022-11-02T00:35:09;100696.95;;;9.83;100.00
19789;BME280;10054;59.332;18.244;2022-11-02T00:37:38;100699.03;;;9.85;100.00
19789;BME280;10054;59.332;18.244;2022-11-02T00:40:07;100694.70;;;9.84;100.00
19789;BME280;10054;59.332;18.244;2022-11-02T00:42:36;100697.16;;;9.87;100.00
19789;BME280;10054;59.332;18.244;2022-11-02T00:45:06;100696.22;;;9.88;100.00
19789;BME280;10054;59.332;18.244;2022-11-02T00:47:35;100689.62;;;9.88;100.00
19789;BME280;10054;59.332;18.244;2022-11-02T00:50:05;100695.27;;;9.89;100.00
19789;BME280;10054;59.332;18.244;2022-11-02T00:52:43;100692.17;;;9.90;100.00
19789;BME280;10054;59.332;18.244;2022-11-02T00:55:09;100689.92;;;9.91;100.00
19789;BME280;10054;59.332;18.244;2022-11-02T00:57:41;100689.45;;;9.92;100.00
19789;BME280;10054;59.332;18.244;2022-11-02T01:00:10;100687.28;;;9.91;100.00
19789;BME280;10054;59.332;18.244;2022-11-02T01:02:41;100685.03;;;9.92;100.00
19789;BME280;10054;59.332;18.244;2022-11-02T01:05:11;100689.36;;;9.93;100.00
19789;BME280;10054;59.332;18.244;2022-11-02T01:07:40;100696.33;;;9.94;100.00
19789;BME280;10054;59.332;18.244;2022-11-02T01:10:11;100694.72;;;9.92;100.00
19789;BME280;10054;59.332;18.244;2022-11-02T01:12:40;100702.16;;;9.92;100.00
19789;BME280;10054;59.332;18.244;2022-11-02T01:15:10;100702.06;;;9.94;100.00
19789;BME280;10054;59.332;18.244;2022-11-02T01:17:39;100697.17;;;9.95;100.00
19789;BME280;10054;59.332;18.244;2022-11-02T01:20:08;100686.72;;;9.93;100.00
19789;BME280;10054;59.332;18.244;2022-11-02T01:22:38;100691.61;;;9.92;100.00
19789;BME280;10054;59.332;18.244;2022-11-02T01:25:07;100696.80;;;9.94;100.00
19789;BME280;10054;59.332;18.244;2022-11-02T01:27:36;100692.66;;;9.97;100.00
19789;BME280;10054;59.332;18.244;2022-11-02T01:30:06;100695.20;;;9.98;100.00
19789;BME280;10054;59.332;18.244;2022-11-02T01:32:36;100694.45;;;9.96;100.00
19789;BME280;10054;59.332;18.244;2022-11-02T01:35:05;100690.78;;;9.99;100.00
19789;BME280;10054;59.332;18.244;2022-11-02T01:37:34;100692.02;;;10.00;100.00
19789;BME280;10054;59.332;18.244;2022-11-02T01:40:03;100697.20;;;10.02;100.00
19789;BME280;10054;59.332;18.244;2022-11-02T01:42:32;100694.18;;;10.01;100.00
19789;BME280;10054;59.332;18.244;2022-11-02T01:45:01;100689.84;;;10.00;100.00
19789;BME280;10054;59.332;18.244;2022-11-02T01:47:35;100686.56;;;10.03;100.00
19789;BME280;10054;59.332;18.244;2022-11-02T01:50:20;100689.95;;;10.05;100.00
19789;BME280;10054;59.332;18.244;2022-11-02T01:52:48;100684.77;;;10.04;100.00
19789;BME280;10054;59.332;18.244;2022-11-02T01:55:27;100691.74;;;10.05;100.00
19789;BME280;10054;59.332;18.244;2022-11-02T01:58:03;100690.16;;;10.09;100.00
19789;BME280;10054;59.332;18.244;2022-11-02T02:00:32;100685.73;;;10.10;100.00
19789;BME280;10054;59.332;18.244;2022-11-02T02:03:10;100674.43;;;10.08;100.00
19789;BME280;10054;59.332;18.244;2022-11-02T02:05:42;100681.39;;;10.09;100.00
19789;BME280;10054;59.332;18.244;2022-11-02T02:08:15;100679.52;;;10.11;100.00
19789;BME280;10054;59.332;18.244;2022-11-02T02:10:44;100681.97;;;10.14;100.00
19789;BME280;10054;59.332;18.244;2022-11-02T02:13:15;100675.95;;;10.12;100.00
19789;BME280;10054;59.332;18.244;2022-11-02T02:15:56;100673.39;;;10.10;100.00
19789;BME280;10054;59.332;18.244;2022-11-02T02:18:32;100673.31;;;10.12;100.00
19789;BME280;10054;59.332;18.244;2022-11-02T02:21:32;100666.16;;;10.14;100.00
19789;BME280;10054;59.332;18.244;2022-11-02T02:30:03;100662.77;;;10.12;100.00
19789;BME280;10054;59.332;18.244;2022-11-02T02:32:38;100668.70;;;10.15;100.00
19789;BME280;10054;59.332;18.244;2022-11-02T02:38:01;100654.30;;;10.14;100.00
19789;BME280;10054;59.332;18.244;2022-11-02T02:40:37;100649.77;;;10.16;100.00
19789;BME280;10054;59.332;18.244;2022-11-02T02:43:08;100648.69;;;10.20;100.00
19789;BME280;10054;59.332;18.244;2022-11-02T02:45:54;100639.45;;;10.20;100.00
19789;BME280;10054;59.332;18.244;2022-11-02T02:48:18;100639.52;;;10.18;100.00
19789;BME280;10054;59.332;18.244;2022-11-02T02:50:53;100639.92;;;10.19;100.00
19789;BME280;10054;59.332;18.244;2022-11-02T02:53:30;100642.84;;;10.22;100.00
19789;BME280;10054;59.332;18.244;2022-11-02T02:55:54;100656.50;;;10.22;100.00
19789;BME280;10054;59.332;18.244;2022-11-02T02:58:27;100658.44;;;10.18;100.00
19789;BME280;10054;59.332;18.244;2022-11-02T03:00:56;100657.13;;;10.18;100.00
19789;BME280;10054;59.332;18.244;2022-11-02T03:03:28;100664.09;;;10.19;100.00
19789;BME280;10054;59.332;18.244;2022-11-02T03:08:40;100658.91;;;10.17;100.00
19789;BME280;10054;59.332;18.244;2022-11-02T03:11:18;100659.76;;;10.18;100.00
19789;BME280;10054;59.332;18.244;2022-11-02T03:19:42;100659.23;;;10.20;100.00
19789;BME280;10054;59.332;18.244;2022-11-02T03:22:39;100651.79;;;10.19;100.00
19789;BME280;10054;59.332;18.244;2022-11-02T03:24:47;100654.72;;;10.22;100.00
19789;BME280;10054;59.332;18.244;2022-11-02T03:30:10;100653.86;;;10.22;100.00
19789;BME280;10054;59.332;18.244;2022-11-02T03:32:56;100659.98;;;10.22;100.00
19789;BME280;10054;59.332;18.244;2022-11-02T03:35:38;100659.52;;;10.23;100.00
19789;BME280;10054;59.332;18.244;2022-11-02T03:38:03;100658.95;;;10.25;100.00
19789;BME280;10054;59.332;18.244;2022-11-02T03:40:38;100656.31;;;10.25;100.00
19789;BME280;10054;59.332;18.244;2022-11-02T03:43:05;100658.58;;;10.24;100.00
19789;BME280;10054;59.332;18.244;2022-11-02T03:45:37;100658.48;;;10.25;100.00
19789;BME280;10054;59.332;18.244;2022-11-02T03:48:09;100659.80;;;10.25;100.00
19789;BME280;10054;59.332;18.244;2022-11-02T03:50:42;100661.97;;;10.26;100.00
19789;BME280;10054;59.332;18.244;2022-11-02T03:54:11;100663.28;;;10.26;100.00
19789;BME280;10054;59.332;18.244;2022-11-02T03:55:54;100663.66;;;10.27;100.00
19789;BME280;10054;59.332;18.244;2022-11-02T03:58:23;100668.84;;;10.28;100.00
19789;BME280;10054;59.332;18.244;2022-11-02T04:01:00;100668.84;;;10.28;100.00
19789;BME280;10054;59.332;18.244;2022-11-02T04:03:24;100665.36;;;10.28;100.00
19789;BME280;10054;59.332;18.244;2022-11-02T04:05:53;100665.83;;;10.27;100.00
19789;BME280;10054;59.332;18.244;2022-11-02T04:08:35;100666.20;;;10.28;100.00
19789;BME280;10054;59.332;18.244;2022-11-02T04:11:06;100665.36;;;10.28;100.00
19789;BME280;10054;59.332;18.244;2022-11-02T04:13:58;100663.09;;;10.29;100.00
19789;BME280;10054;59.332;18.244;2022-11-02T04:16:45;100659.23;;;10.27;100.00
19789;BME280;10054;59.332;18.244;2022-11-02T04:19:15;100664.04;;;10.28;100.00
19789;BME280;10054;59.332;18.244;2022-11-02T04:22:01;100668.00;;;10.28;100.00
19789;BME280;10054;59.332;18.244;2022-11-02T04:24:49;100665.83;;;10.27;100.00
19789;BME280;10054;59.332;18.244;2022-11-02T04:27:35;100671.29;;;10.24;100.00
19789;BME280;10054;59.332;18.244;2022-11-02T04:30:05;100667.80;;;10.24;100.00
19789;BME280;10054;59.332;18.244;2022-11-02T04:32:39;100672.13;;;10.25;100.00
19789;BME280;10054;59.332;18.244;2022-11-02T04:35:28;100669.03;;;10.25;100.00
19789;BME280;10054;59.332;18.244;2022-11-02T04:37:58;100670.81;;;10.25;100.00
19789;BME280;10054;59.332;18.244;2022-11-02T04:40:46;100666.48;;;10.24;100.00
19789;BME280;10054;59.332;18.244;2022-11-02T04:43:14;100671.76;;;10.24;100.00
19789;BME280;10054;59.332;18.244;2022-11-02T04:45:43;100667.80;;;10.24;100.00
19789;BME280;10054;59.332;18.244;2022-11-02T04:48:12;100663.66;;;10.19;100.00
19789;BME280;10054;59.332;18.244;2022-11-02T04:50:42;100661.45;;;10.19;100.00
19789;BME280;10054;59.332;18.244;2022-11-02T04:53:12;100663.71;;;10.18;100.00
19789;BME280;10054;59.332;18.244;2022-11-02T04:55:41;100661.45;;;10.19;100.00
19789;BME280;10054;59.332;18.244;2022-11-02T04:58:12;100663.71;;;10.18;100.00
19789;BME280;10054;59.332;18.244;2022-11-02T05:00:41;100665.13;;;10.16;100.00
19789;BME280;10054;59.332;18.244;2022-11-02T05:03:11;100668.61;;;10.17;100.00
19789;BME280;10054;59.332;18.244;2022-11-02T05:05:40;100665.59;;;10.16;100.00
19789;BME280;10054;59.332;18.244;2022-11-02T05:08:09;100668.70;;;10.15;100.00
19789;BME280;10054;59.332;18.244;2022-11-02T05:10:38;100663.14;;;10.13;100.00
19789;BME280;10054;59.332;18.244;2022-11-02T05:13:09;100665.69;;;10.14;100.00
19789;BME280;10054;59.332;18.244;2022-11-02T05:15:41;100674.35;;;10.16;100.00
19789;BME280;10054;59.332;18.244;2022-11-02T05:18:12;100673.97;;;10.15;100.00
19789;BME280;10054;59.332;18.244;2022-11-02T05:20:41;100672.75;;;10.14;100.00
19789;BME280;10054;59.332;18.244;2022-11-02T05:23:10;100674.63;;;10.12;100.00
19789;BME280;10054;59.332;18.244;2022-11-02T05:25:38;100675.09;;;10.11;100.00
19789;BME280;10054;59.332;18.244;2022-11-02T05:28:07;100682.53;;;10.12;100.00
19789;BME280;10054;59.332;18.244;2022-11-02T05:30:36;100681.21;;;10.12;100.00
19789;BME280;10054;59.332;18.244;2022-11-02T05:33:05;100679.98;;;10.10;100.00
19789;BME280;10054;59.332;18.244;2022-11-02T05:35:34;100675.66;;;10.09;100.00
19789;BME280;10054;59.332;18.244;2022-11-02T05:38:03;100677.44;;;10.09;100.00
19789;BME280;10054;59.332;18.244;2022-11-02T05:40:32;100687.14;;;10.08;100.00
19789;BME280;10054;59.332;18.244;2022-11-02T05:43:03;100679.32;;;10.07;100.00
19789;BME280;10054;59.332;18.244;2022-11-02T05:45:34;100680.17;;;10.07;100.00
19789;BME280;10054;59.332;18.244;2022-11-02T05:48:03;100678.00;;;10.07;100.00
19789;BME280;10054;59.332;18.244;2022-11-02T05:50:35;100680.64;;;10.07;100.00
19789;BME280;10054;59.332;18.244;2022-11-02T05:53:04;100685.63;;;10.04;100.00
19789;BME280;10054;59.332;18.244;2022-11-02T05:55:33;100679.88;;;10.05;100.00
19789;BME280;10054;59.332;18.244;2022-11-02T05:58:02;100679.32;;;10.07;100.00
19789;BME280;10054;59.332;18.244;2022-11-02T06:00:31;100685.73;;;10.10;100.00
19789;BME280;10054;59.332;18.244;2022-11-02T06:03:00;100689.30;;;10.09;100.00
19789;BME280;10054;59.332;18.244;2022-11-02T06:05:30;100685.06;;;10.06;100.00
19789;BME280;10054;59.332;18.244;2022-11-02T06:08:00;100694.58;;;10.09;100.00
19789;BME280;10054;59.332;18.244;2022-11-02T06:10:30;100700.23;;;10.10;100.00
19789;BME280;10054;59.332;18.244;2022-11-02T06:13:00;100694.11;;;10.09;100.00
19789;BME280;10054;59.332;18.244;2022-11-02T06:15:31;100698.71;;;10.06;100.00
19789;BME280;10054;59.332;18.244;2022-11-02T06:17:59;100696.08;;;10.06;100.00
19789;BME280;10054;59.332;18.244;2022-11-02T06:20:28;100697.68;;;10.08;100.00
19789;BME280;10054;59.332;18.244;2022-11-02T06:22:58;100694.95;;;10.10;100.00
19789;BME280;10054;59.332;18.244;2022-11-02T06:25:27;100690.80;;;10.06;100.00
19789;BME280;10054;59.332;18.244;2022-11-02T06:27:57;100696.08;;;10.06;100.00
19789;BME280;10054;59.332;18.244;2022-11-02T06:30:26;100695.13;;;10.07;100.00
19789;BME280;10054;59.332;18.244;2022-11-02T06:32:55;100698.91;;;10.10;100.00
19789;BME280;10054;59.332;18.244;2022-11-02T06:35:24;100701.26;;;10.07;100.00
19789;BME280;10054;59.332;18.244;2022-11-02T06:37:52;100704.83;;;10.06;100.00
19789;BME280;10054;59.332;18.244;2022-11-02T06:40:21;100699.84;;;10.09;100.00
19789;BME280;10054;59.332;18.244;2022-11-02T06:42:55;100697.97;;;10.11;100.00
19789;BME280;10054;59.332;18.244;2022-11-02T06:45:24;100699.09;;;10.07;100.00
19789;BME280;10054;59.332;18.244;2022-11-02T06:47:53;100695.61;;;10.06;100.00
19789;BME280;10054;59.332;18.244;2022-11-02T06:50:22;100692.97;;;10.06;100.00
19789;BME280;10054;59.332;18.244;2022-11-02T06:52:51;100696.83;;;10.08;100.00
19789;BME280;10054;59.332;18.244;2022-11-02T06:55:20;100689.86;;;10.07;100.00
19789;BME280;10054;59.332;18.244;2022-11-02T06:57:48;100696.92;;;10.06;100.00
19789;BME280;10054;59.332;18.244;2022-11-02T07:00:17;100698.15;;;10.08;100.00
19789;BME280;10054;59.332;18.244;2022-11-02T07:02:57;100694.86;;;10.11;100.00
19789;BME280;10054;59.332;18.244;2022-11-02T07:05:16;100700.89;;;10.13;100.00
19789;BME280;10054;59.332;18.244;2022-11-02T07:07:45;100699.66;;;10.12;100.00
19789;BME280;10054;59.332;18.244;2022-11-02T07:10:14;100703.16;;;10.12;100.00
19789;BME280;10054;59.332;18.244;2022-11-02T07:12:43;100697.52;;;10.18;100.00
19789;BME280;10054;59.332;18.244;2022-11-02T07:15:12;100700.47;;;10.21;100.00
19789;BME280;10054;59.332;18.244;2022-11-02T07:17:40;100700.47;;;10.21;100.00
19789;BME280;10054;59.332;18.244;2022-11-02T07:20:10;100707.06;;;10.21;100.00
19789;BME280;10054;59.332;18.244;2022-11-02T07:22:39;100704.80;;;10.22;100.00
19789;BME280;10054;59.332;18.244;2022-11-02T07:25:08;100693.79;;;10.23;100.00
19789;BME280;10054;59.332;18.244;2022-11-02T07:27:39;100699.44;;;10.24;100.00
19789;BME280;10054;59.332;18.244;2022-11-02T07:30:08;100698.22;;;10.22;100.00
19789;BME280;10054;59.332;18.244;2022-11-02T07:32:40;100697.74;;;10.23;100.00
19789;BME280;10054;59.332;18.244;2022-11-02T07:35:11;100698.41;;;10.26;100.00
19789;BME280;10054;59.332;18.244;2022-11-02T07:37:40;100699.08;;;10.30;100.00
19789;BME280;10054;59.332;18.244;2022-11-02T07:40:11;100692.58;;;10.28;100.00
19789;BME280;10054;59.332;18.244;2022-11-02T07:42:45;100693.80;;;10.30;100.00
19789;BME280;10054;59.332;18.244;2022-11-02T07:45:15;100704.63;;;10.32;100.00
19789;BME280;10054;59.332;18.244;2022-11-02T07:47:44;100699.64;;;10.35;100.00
19789;BME280;10054;59.332;18.244;2022-11-02T07:50:15;100698.80;;;10.34;100.00
19789;BME280;10054;59.332;18.244;2022-11-02T07:52:46;100700.50;;;10.35;100.00
19789;BME280;10054;59.332;18.244;2022-11-02T07:55:17;100699.64;;;10.35;100.00
19789;BME280;10054;59.332;18.244;2022-11-02T08:00:33;100696.16;;;10.34;100.00
19789;BME280;10054;59.332;18.244;2022-11-02T08:03:03;100704.83;;;10.36;100.00
19789;BME280;10054;59.332;18.244;2022-11-02T08:05:34;100698.23;;;10.36;100.00
19789;BME280;10054;59.332;18.244;2022-11-02T08:08:14;100702.56;;;10.37;100.00
19789;BME280;10054;59.332;18.244;2022-11-02T08:10:38;100699.84;;;10.39;100.00
19789;BME280;10054;59.332;18.244;2022-11-02T08:13:12;100703.89;;;10.37;100.00
19789;BME280;10054;59.332;18.244;2022-11-02T08:15:41;100700.78;;;10.38;100.00
19789;BME280;10054;59.332;18.244;2022-11-02T08:18:15;100700.02;;;10.36;100.00
19789;BME280;10054;59.332;18.244;2022-11-02T08:20:45;100700.97;;;10.35;100.00
19789;BME280;10054;59.332;18.244;2022-11-02T08:23:15;100700.02;;;10.36;100.00
19789;BME280;10054;59.332;18.244;2022-11-02T08:25:47;100709.72;;;10.35;100.00
19789;BME280;10054;59.332;18.244;2022-11-02T08:28:23;100708.13;;;10.33;100.00
19789;BME280;10054;59.332;18.244;2022-11-02T08:30:47;100711.23;;;10.32;100.00
19789;BME280;10054;59.332;18.244;2022-11-02T08:33:18;100702.75;;;10.34;100.00
19789;BME280;10054;59.332;18.244;2022-11-02T08:35:47;100707.09;;;10.35;100.00
19789;BME280;10054;59.332;18.244;2022-11-02T08:38:17;100702.09;;;10.31;100.00
19789;BME280;10054;59.332;18.244;2022-11-02T08:40:47;100704.81;;;10.29;100.00
19789;BME280;10054;59.332;18.244;2022-11-02T08:43:17;100699.36;;;10.32;100.00
19789;BME280;10054;59.332;18.244;2022-11-02T08:45:46;100702.19;;;10.36;100.00
19789;BME280;10054;59.332;18.244;2022-11-02T08:48:15;100697.67;;;10.38;100.00
19789;BME280;10054;59.332;18.244;2022-11-02T08:50:44;100698.14;;;10.38;100.00
19789;BME280;10054;59.332;18.244;2022-11-02T08:53:13;100689.30;;;10.39;100.00
19789;BME280;10054;59.332;18.244;2022-11-02T08:55:42;100690.30;;;10.43;100.00
19789;BME280;10054;59.332;18.244;2022-11-02T08:58:11;100691.05;;;10.45;100.00
19789;BME280;10054;59.332;18.244;2022-11-02T09:00:40;100688.89;;;10.45;100.00
19789;BME280;10054;59.332;18.244;2022-11-02T09:03:14;100690.58;;;10.46;100.00
19789;BME280;10054;59.332;18.244;2022-11-02T09:05:45;100687.38;;;10.48;100.00
19789;BME280;10054;59.332;18.244;2022-11-02T09:08:16;100683.33;;;10.49;100.00
19789;BME280;10054;59.332;18.244;2022-11-02T09:10:48;100683.62;;;10.52;100.00
19789;BME280;10054;59.332;18.244;2022-11-02T09:13:17;100675.80;;;10.50;100.00
19789;BME280;10054;59.332;18.244;2022-11-02T09:15:53;100673.34;;;10.54;100.00
19789;BME280;10054;59.332;18.244;2022-11-02T09:18:23;100673.16;;;10.58;100.00
19789;BME280;10054;59.332;18.244;2022-11-02T09:20:52;100677.78;;;10.61;100.00
19789;BME280;10054;59.332;18.244;2022-11-02T09:23:21;100673.63;;;10.64;100.00
19789;BME280;10054;59.332;18.244;2022-11-02T09:25:50;100675.42;;;10.64;100.00
19789;BME280;10054;59.332;18.244;2022-11-02T09:28:20;100673.81;;;10.68;100.00
19789;BME280;10054;59.332;18.244;2022-11-02T09:30:49;100673.63;;;10.71;100.00
19789;BME280;10054;59.332;18.244;2022-11-02T09:33:18;100672.22;;;10.73;100.00
19789;BME280;10054;59.332;18.244;2022-11-02T09:35:48;100669.58;;;10.73;100.00
19789;BME280;10054;59.332;18.244;2022-11-02T09:38:17;100667.31;;;10.74;100.00
19789;BME280;10054;59.332;18.244;2022-11-02T09:41:01;100667.59;;;10.76;100.00
19789;BME280;10054;59.332;18.244;2022-11-02T09:43:52;100666.08;;;10.79;100.00
19789;BME280;10054;59.332;18.244;2022-11-02T09:46:23;100665.05;;;10.82;100.00
19789;BME280;10054;59.332;18.244;2022-11-02T09:48:56;100674.56;;;10.84;100.00
19789;BME280;10054;59.332;18.244;2022-11-02T09:51:40;100665.23;;;10.86;100.00
19789;BME280;10054;59.332;18.244;2022-11-02T09:56:51;100667.39;;;10.86;100.00
19789;BME280;10054;59.332;18.244;2022-11-02T09:59:22;100672.48;;;10.90;100.00
19789;BME280;10054;59.332;18.244;2022-11-02T10:07:26;100659.28;;;10.90;100.00
19789;BME280;10054;59.332;18.244;2022-11-02T10:12:58;100653.53;;;10.90;100.00
19789;BME280;10054;59.332;18.244;2022-11-02T10:15:36;100654.00;;;10.90;100.00
19789;BME280;10054;59.332;18.244;2022-11-02T10:18:07;100649.95;;;10.91;100.00
19789;BME280;10054;59.332;18.244;2022-11-02T10:20:38;100657.02;;;10.91;100.00
19789;BME280;10054;59.332;18.244;2022-11-02T10:23:11;100651.08;;;10.94;100.00
19789;BME280;10054;59.332;18.244;2022-11-02T10:25:39;100652.67;;;10.97;100.00
19789;BME280;10054;59.332;18.244;2022-11-02T10:28:17;100650.41;;;10.98;100.00
19789;BME280;10054;59.332;18.244;2022-11-02T10:30:45;100655.41;;;10.95;100.00
19789;BME280;10054;59.332;18.244;2022-11-02T10:33:16;100656.91;;;10.99;100.00
19789;BME280;10054;59.332;18.244;2022-11-02T10:36:08;100652.38;;;11.01;100.00
19789;BME280;10054;59.332;18.244;2022-11-02T10:38:53;100652.56;;;11.05;100.00
19789;BME280;10054;59.332;18.244;2022-11-02T10:47:18;100652.54;;;11.12;100.00
19789;BME280;10054;59.332;18.244;2022-11-02T10:52:36;100660.23;;;11.15;100.00
19789;BME280;10054;59.332;18.244;2022-11-02T10:55:08;100658.06;;;11.15;100.00
19789;BME280;10054;59.332;18.244;2022-11-02T10:57:39;100659.29;;;11.16;100.00
19789;BME280;10054;59.332;18.244;2022-11-02T11:03:09;100653.81;;;11.19;100.00
19789;BME280;10054;59.332;18.244;2022-11-02T11:13:43;100642.78;;;11.20;100.00
19789;BME280;10054;59.332;18.244;2022-11-02T11:16:12;100642.85;;;11.26;100.00
19789;BME280;10054;59.332;18.244;2022-11-02T11:18:41;100641.91;;;11.27;100.00
19789;BME280;10054;59.332;18.244;2022-11-02T11:21:10;100641.06;;;11.26;100.00
19789;BME280;10054;59.332;18.244;2022-11-02T11:23:39;100639.46;;;11.24;100.00
19789;BME280;10054;59.332;18.244;2022-11-02T11:26:24;100637.20;;;11.25;100.00
19789;BME280;10054;59.332;18.244;2022-11-02T11:28:55;100632.29;;;11.26;100.00
19789;BME280;10054;59.332;18.244;2022-11-02T11:31:25;100636.90;;;11.29;100.00
19789;BME280;10054;59.332;18.244;2022-11-02T11:33:58;100630.87;;;11.27;100.00
19789;BME280;10054;59.332;18.244;2022-11-02T11:36:33;100635.12;;;11.23;100.00
19789;BME280;10054;59.332;18.244;2022-11-02T11:39:23;100634.66;;;11.23;100.00
19789;BME280;10054;59.332;18.244;2022-11-02T11:41:52;100630.59;;;11.25;100.00
19789;BME280;10054;59.332;18.244;2022-11-02T11:44:21;100638.14;;;11.24;100.00
19789;BME280;10054;59.332;18.244;2022-11-02T11:46:53;100628.25;;;11.20;100.00
19789;BME280;10054;59.332;18.244;2022-11-02T11:49:32;100632.52;;;11.15;100.00
19789;BME280;10054;59.332;18.244;2022-11-02T11:51:56;100629.50;;;11.14;100.00
19789;BME280;10054;59.332;18.244;2022-11-02T11:54:31;100631.05;;;11.11;100.00
19789;BME280;10054;59.332;18.244;2022-11-02T11:57:41;100629.35;;;11.10;100.00
19789;BME280;10054;59.332;18.244;2022-11-02T12:02:23;100626.16;;;11.05;100.00
19789;BME280;10054;59.332;18.244;2022-11-02T12:04:57;100621.83;;;11.04;100.00
19789;BME280;10054;59.332;18.244;2022-11-02T12:10:50;100618.91;;;11.02;100.00
19789;BME280;10054;59.332;18.244;2022-11-02T12:14:19;100618.73;;;10.98;100.00
19789;BME280;10054;59.332;18.244;2022-11-02T12:16:17;100613.92;;;10.97;100.00
19789;BME280;10054;59.332;18.244;2022-11-02T12:18:51;100603.64;;;11.00;100.00
19789;BME280;10054;59.332;18.244;2022-11-02T12:24:21;100604.97;;;11.00;100.00
19789;BME280;10054;59.332;18.244;2022-11-02T12:27:31;100601.67;;;10.96;100.00
19789;BME280;10054;59.332;18.244;2022-11-02T12:30:11;100600.16;;;10.99;100.00
19789;BME280;10054;59.332;18.244;2022-11-02T12:32:55;100596.09;;;11.01;100.00
19789;BME280;10054;59.332;18.244;2022-11-02T12:38:38;100588.38;;;10.98;100.00
19789;BME280;10054;59.332;18.244;2022-11-02T12:41:16;100584.22;;;11.01;100.00
19789;BME280;10054;59.332;18.244;2022-11-02T12:43:48;100587.61;;;11.03;100.00
19789;BME280;10054;59.332;18.244;2022-11-02T12:46:43;100589.77;;;11.03;100.00
19789;BME280;10054;59.332;18.244;2022-11-02T12:54:56;100587.03;;;11.05;100.00
19789;BME280;10054;59.332;18.244;2022-11-02T12:57:28;100579.19;;;11.10;100.00
19789;BME280;10054;59.332;18.244;2022-11-02T13:00:04;100577.91;;;11.16;100.00
19789;BME280;10054;59.332;18.244;2022-11-02T13:02:56;100580.15;;;11.22;100.00
19789;BME280;10054;59.332;18.244;2022-11-02T13:05:28;100581.71;;;11.32;100.00
19789;BME280;10054;59.332;18.244;2022-11-02T13:08:17;100578.46;;;11.41;100.00
19789;BME280;10054;59.332;18.244;2022-11-02T13:10:53;100578.53;;;11.46;100.00
19789;BME280;10054;59.332;18.244;2022-11-02T13:13:43;100573.89;;;11.50;100.00
19789;BME280;10054;59.332;18.244;2022-11-02T13:16:10;100577.74;;;11.51;100.00
19789;BME280;10054;59.332;18.244;2022-11-02T13:18:53;100573.89;;;11.50;100.00
19789;BME280;10054;59.332;18.244;2022-11-02T13:21:22;100578.80;;;11.49;100.00
19789;BME280;10054;59.332;18.244;2022-11-02T13:23:55;100570.39;;;11.49;100.00
19789;BME280;10054;59.332;18.244;2022-11-02T13:26:38;100575.04;;;11.46;100.00
19789;BME280;10054;59.332;18.244;2022-11-02T13:32:09;100572.23;;;11.42;100.00
19789;BME280;10054;59.332;18.244;2022-11-02T13:34:45;100571.38;;;11.41;100.00
19789;BME280;10054;59.332;18.244;2022-11-02T13:37:17;100567.05;;;11.40;100.00
19789;BME280;10054;59.332;18.244;2022-11-02T13:39:49;100568.09;;;11.38;100.00
19789;BME280;10054;59.332;18.244;2022-11-02T13:47:55;100562.20;;;11.27;100.00
19789;BME280;10054;59.332;18.244;2022-11-02T13:50:23;100561.84;;;11.26;100.00
19789;BME280;10054;59.332;18.244;2022-11-02T13:52:59;100559.67;;;11.26;100.00
19789;BME280;10054;59.332;18.244;2022-11-02T13:55:38;100549.68;;;11.24;100.00
19789;BME280;10054;59.332;18.244;2022-11-02T13:58:12;100552.52;;;11.20;100.00
19789;BME280;10054;59.332;18.244;2022-11-02T14:00:44;100549.98;;;11.19;100.00
19789;BME280;10054;59.332;18.244;2022-11-02T14:03:20;100554.42;;;11.18;100.00
19789;BME280;10054;59.332;18.244;2022-11-02T14:05:51;100561.22;;;11.15;100.00
19789;BME280;10054;59.332;18.244;2022-11-02T14:08:32;100564.77;;;11.09;100.00
19789;BME280;10054;59.332;18.244;2022-11-02T14:20:26;100558.13;;;10.96;100.00
19789;BME280;10054;59.332;18.244;2022-11-02T14:22:18;100558.05;;;10.91;100.00
19789;BME280;10054;59.332;18.244;2022-11-02T14:29:47;100551.56;;;10.82;100.00